메인 페이지
METAR-TAF:

METAR-TAF

공항 :

바레인 국제공항

바레인, 바레인

위도: 26-16N, 경도: 050-39E, 고도: 2m

현재 날씨관측

예보는 16분 전, 14:30시(UTC)에 발표되었습니다.
11kt
온도 32°C
습도 63%
기압 1004 hPa
시정 10km 이상
1500m 미만 상공 구름 및 적란운 없음

METAR: OBBI 251430Z 09011KT CAVOK 32/24 Q1004 NOSIG

시각: 17:46 (14:46 UTC)

예보

예보는 3 시간 46분 전, 11:00시(UTC)에 발표되었습니다.
예보 대상 시간: 25일 12시부터 26일 18시까지 (UTC)
동북동10kt
시정 10km 이상
1500m 미만 상공 구름 및 적란운 없음

TAF: OBBI 251100Z 2512/2618 07010KT CAVOK

4,000개 이상의 공항 관측 자료 및 예보 (METAR 및 TAF 보고).

지도상에서 검색 가능한 기상관측소가 노란 점과 빨간 점으로 표시되어 있습니다.

기상관측소 명을 보려면 표시 위로 마우스를 이동하세요.

날씨 관측과 예보를 보려면 클릭하세요.

지도 변경 : 확대하려면 엑스 표시가 있는 녹색 버튼, 축소하려면 빼기 표시가 있는 녹색 버튼, 다음 페이지의 지도를 보려면 녹색 화살표를 클릭하세요.


METAR-TAF: